Terminal Aerodrome Forecast
Issued by NWS

Home | Current Version | Previous Version | Text Only | Print | Product List | Glossary On
Versions: 1 2 3 4 5 6 7 8 9 10 11 12 13 14 15 16 17 18 19
638
FTUS41 KPBZ 201720
TAFBVI
TAF
KBVI 201720Z 2018/2118 19006KT P6SM SCT004 OVC015
      TEMPO 2018/2020 4SM -RA BKN004
     FM210600 00000KT 3SM BR OVC008
     FM211200 15004KT P6SM BKN015
     FM211600 18005KT P6SM BKN025=

USA.gov is the U.S. government's official web portal to all federal, state and local government web resources and services.